Time;durP1;ratioP1;P1;durP2;ratioP2;P2;SDS_P1;SDS_P2;PMS_P1;PMS_P2;Temp;Humidity;BMP_temperature;BMP_pressure;BME280_temperature;BME280_humidity;BME280_pressure;Samples;Min_cycle;Max_cycle;Signal;HPM_P1;HPM_P2
2022/04/13 00:01:59;;;;;;;5.93;3.60;;;16.20;99.90;;;;;;5012261;28;20207;-83
2022/04/13 00:04:26;;;;;;;7.40;3.10;;;16.10;99.90;;;;;;4994510;28;20215;-82
2022/04/13 00:06:53;;;;;;;7.07;3.20;;;16.10;99.90;;;;;;5001678;28;20285;-80
2022/04/13 00:09:20;;;;;;;10.43;3.60;;;16.10;99.90;;;;;;4999375;28;20206;-81
2022/04/13 00:11:47;;;;;;;9.73;3.70;;;16.10;99.90;;;;;;4999083;28;20241;-82
2022/04/13 00:14:13;;;;;;;5.10;3.30;;;16.10;99.90;;;;;;4999651;28;20207;-81
2022/04/13 00:16:42;;;;;;;7.40;3.13;;;16.00;99.90;;;;;;4998696;28;20211;-81
2022/04/13 00:19:09;;;;;;;6.00;3.17;;;16.00;99.90;;;;;;5001243;28;20281;-82
2022/04/13 00:21:35;;;;;;;5.67;3.43;;;16.00;99.90;;;;;;5002118;28;20472;-81
2022/04/13 00:24:03;;;;;;;7.03;3.40;;;16.00;99.90;;;;;;4996973;28;20210;-82
2022/04/13 00:26:29;;;;;;;7.33;3.10;;;15.90;99.90;;;;;;5004496;28;20288;-80
2022/04/13 00:28:56;;;;;;;7.90;3.33;;;15.90;99.90;;;;;;4999231;28;20238;-84
2022/04/13 00:31:23;;;;;;;5.93;3.10;;;15.80;99.90;;;;;;4998183;28;20277;-83
2022/04/13 00:33:50;;;;;;;7.37;3.27;;;15.80;99.90;;;;;;4992398;28;20297;-81
2022/04/13 00:36:17;;;;;;;8.70;3.67;;;15.70;99.90;;;;;;5002885;28;20210;-81
2022/04/13 00:38:44;;;;;;;9.83;3.30;;;15.70;99.90;;;;;;5010254;28;20729;-81
2022/04/13 00:41:12;;;;;;;7.37;3.57;;;15.60;99.90;;;;;;5001687;28;20248;-82
2022/04/13 00:43:39;;;;;;;9.93;3.70;;;15.60;99.90;;;;;;5005265;28;20755;-82
2022/04/13 00:46:06;;;;;;;7.40;3.10;;;15.50;99.90;;;;;;5000849;28;20230;-82
2022/04/13 00:48:39;;;;;;;6.73;3.10;;;15.50;99.90;;;;;;4996118;28;20326;-81
2022/04/13 00:51:07;;;;;;;11.43;3.30;;;15.40;99.90;;;;;;5002490;28;20242;-82
2022/04/13 00:53:35;;;;;;;8.83;3.50;;;15.40;99.90;;;;;;4995801;28;20325;-82
2022/04/13 00:56:04;;;;;;;9.27;4.00;;;15.40;99.90;;;;;;5005175;28;20233;-82
2022/04/13 00:58:33;;;;;;;11.10;3.60;;;15.40;99.90;;;;;;4995477;28;20322;-81
2022/04/13 01:01:03;;;;;;;10.87;4.13;;;15.30;99.90;;;;;;4996996;28;20646;-81
2022/04/13 01:03:30;;;;;;;6.47;3.57;;;15.30;99.90;;;;;;5002533;28;20205;-82
2022/04/13 01:05:57;;;;;;;11.07;4.97;;;15.20;99.90;;;;;;5003053;28;20350;-81
2022/04/13 01:08:28;;;;;;;9.03;3.77;;;15.00;99.90;;;;;;4999195;28;20336;-81
2022/04/13 01:10:55;;;;;;;6.60;3.63;;;15.10;99.90;;;;;;4999953;28;20243;-82
2022/04/13 01:13:22;;;;;;;7.10;3.27;;;15.10;99.90;;;;;;4999315;28;20214;-82
2022/04/13 01:15:49;;;;;;;7.93;3.60;;;15.10;99.90;;;;;;5000270;28;20289;-81
2022/04/13 01:18:18;;;;;;;7.30;3.63;;;15.10;99.90;;;;;;4999827;28;20357;-80
2022/04/13 01:20:52;;;;;;;7.37;3.67;;;15.10;99.90;;;;;;5001451;28;20287;-81
2022/04/13 01:23:23;;;;;;;7.13;4.00;;;15.00;99.90;;;;;;5002170;28;20219;-81
2022/04/13 01:25:52;;;;;;;7.43;4.00;;;15.00;99.90;;;;;;4999222;28;20241;-82
2022/04/13 01:28:21;;;;;;;10.13;4.27;;;15.00;99.90;;;;;;4999449;28;20301;-82
2022/04/13 01:30:54;;;;;;;13.97;4.10;;;14.90;99.90;;;;;;4992326;28;20220;-81
2022/04/13 01:33:23;;;;;;;6.80;3.73;;;15.00;99.90;;;;;;4994052;28;20247;-81
2022/04/13 01:35:50;;;;;;;8.70;3.73;;;15.00;99.90;;;;;;4997135;28;20588;-80
2022/04/13 01:38:16;;;;;;;8.27;4.10;;;15.00;99.90;;;;;;5001735;28;20212;-81
2022/04/13 01:40:44;;;;;;;11.40;4.10;;;14.80;99.90;;;;;;4999836;28;20202;-81
2022/04/13 01:43:11;;;;;;;8.87;4.00;;;14.90;99.90;;;;;;5001314;28;20213;-81
2022/04/13 01:45:38;;;;;;;7.57;4.13;;;14.80;99.90;;;;;;5000399;28;20206;-82
2022/04/13 01:48:07;;;;;;;7.00;4.10;;;14.80;99.90;;;;;;4995867;28;20220;-81
2022/04/13 01:50:34;;;;;;;6.63;3.90;;;14.80;99.90;;;;;;5015152;28;20741;-82
2022/04/13 01:53:01;;;;;;;9.40;4.20;;;14.70;99.90;;;;;;4999068;28;20619;-81
2022/04/13 01:55:28;;;;;;;7.53;4.07;;;14.70;99.90;;;;;;4994938;28;20222;-81
2022/04/13 01:57:55;;;;;;;6.07;4.40;;;14.60;99.90;;;;;;5009904;28;20231;-81
2022/04/13 02:00:25;;;;;;;13.20;5.80;;;14.50;99.90;;;;;;4998996;28;20310;-81
2022/04/13 02:02:53;;;;;;;10.53;4.93;;;14.40;99.90;;;;;;5000959;28;20575;-80
2022/04/13 02:05:20;;;;;;;12.33;4.80;;;14.40;99.90;;;;;;4995855;28;20203;-80
2022/04/13 02:07:47;;;;;;;9.60;4.47;;;14.30;99.90;;;;;;4998245;28;20217;-80
2022/04/13 02:10:14;;;;;;;11.73;5.40;;;14.30;99.90;;;;;;4991388;28;20233;-80
2022/04/13 02:12:42;;;;;;;11.57;5.50;;;14.20;99.90;;;;;;5003806;28;20229;-80
2022/04/13 02:15:09;;;;;;;12.33;5.13;;;14.10;99.90;;;;;;4995950;28;20259;-80
2022/04/13 02:17:38;;;;;;;13.07;5.73;;;14.10;99.90;;;;;;4988576;28;20293;-79
2022/04/13 02:20:06;;;;;;;10.83;5.20;;;14.00;99.90;;;;;;4993411;28;20238;-80
2022/04/13 02:22:34;;;;;;;15.57;5.33;;;14.00;99.90;;;;;;4997766;28;20363;-80
2022/04/13 02:25:16;;;;;;;11.23;5.70;;;13.90;99.90;;;;;;4999831;28;20214;-80
2022/04/13 02:27:43;;;;;;;10.57;5.87;;;13.90;99.90;;;;;;5001794;28;20317;-81
2022/04/13 02:30:10;;;;;;;13.43;6.60;;;13.80;99.90;;;;;;4995524;28;20322;-81
2022/04/13 02:32:43;;;;;;;14.23;6.37;;;13.80;99.90;;;;;;5000919;28;20211;-80
2022/04/13 02:35:12;;;;;;;9.93;6.50;;;13.70;99.90;;;;;;4990809;28;20343;-80
2022/04/13 02:37:39;;;;;;;15.90;6.93;;;13.70;99.90;;;;;;5004594;28;20250;-81
2022/04/13 02:40:07;;;;;;;14.43;7.33;;;13.70;99.90;;;;;;5000009;28;20237;-80
2022/04/13 02:42:35;;;;;;;8.87;6.17;;;13.60;99.90;;;;;;4999579;28;20298;-81
2022/04/13 02:45:06;;;;;;;10.77;6.77;;;13.60;99.90;;;;;;4993041;28;20293;-81
2022/04/13 02:47:36;;;;;;;14.80;6.40;;;13.60;99.90;;;;;;5003277;28;20248;-82
2022/04/13 02:50:06;;;;;;;12.23;6.20;;;13.60;99.90;;;;;;5000896;28;20349;-80
2022/04/13 02:52:33;;;;;;;11.77;5.50;;;13.60;99.90;;;;;;4999395;28;20223;-79
2022/04/13 02:55:01;;;;;;;12.03;6.33;;;13.50;99.90;;;;;;4992412;28;20314;-81
2022/04/13 02:57:27;;;;;;;15.60;6.40;;;13.50;99.90;;;;;;5003707;28;20370;-81
2022/04/13 02:59:54;;;;;;;13.47;5.90;;;13.50;99.90;;;;;;4995232;28;20226;-80
2022/04/13 03:02:21;;;;;;;13.73;6.67;;;13.60;99.90;;;;;;5000796;28;20241;-80
2022/04/13 03:04:48;;;;;;;14.50;6.30;;;13.60;99.90;;;;;;5001008;28;20214;-80
2022/04/13 03:07:16;;;;;;;9.13;5.57;;;13.60;99.90;;;;;;4996325;28;20588;-81
2022/04/13 03:09:44;;;;;;;11.57;5.80;;;13.50;99.90;;;;;;5003728;28;20219;-82
2022/04/13 03:12:12;;;;;;;10.87;5.90;;;13.60;99.90;;;;;;5000973;28;20284;-82
2022/04/13 03:14:40;;;;;;;8.93;5.50;;;13.40;99.90;;;;;;5002499;28;20368;-79
2022/04/13 03:17:07;;;;;;;13.73;6.43;;;13.50;99.90;;;;;;4995064;28;21584;-79
2022/04/13 03:19:34;;;;;;;11.10;5.83;;;13.50;99.90;;;;;;4999384;28;20284;-81
2022/04/13 03:22:01;;;;;;;10.80;5.30;;;13.50;99.90;;;;;;4997929;28;20210;-79
2022/04/13 03:24:28;;;;;;;11.00;5.57;;;13.50;99.90;;;;;;5005108;28;20732;-80
2022/04/13 03:26:55;;;;;;;11.63;5.60;;;13.50;99.90;;;;;;4997706;28;20341;-80
2022/04/13 03:29:22;;;;;;;8.93;5.30;;;13.50;99.90;;;;;;4996635;28;20237;-79
2022/04/13 03:31:49;;;;;;;11.80;5.27;;;13.50;99.90;;;;;;4997523;28;20222;-80
2022/04/13 03:34:20;;;;;;;10.90;5.27;;;13.60;99.90;;;;;;4998199;28;20580;-80
2022/04/13 03:36:48;;;;;;;9.07;5.27;;;13.60;99.90;;;;;;4997659;28;20232;-80
2022/04/13 03:39:15;;;;;;;8.63;5.23;;;13.60;99.90;;;;;;5003218;28;20321;-79
2022/04/13 03:41:41;;;;;;;11.67;6.30;;;13.70;99.90;;;;;;5001593;28;20750;-80
2022/04/13 03:44:09;;;;;;;13.10;6.47;;;13.60;99.90;;;;;;4998969;28;20234;-80
2022/04/13 03:46:35;;;;;;;10.83;6.80;;;13.60;99.90;;;;;;5004736;28;20211;-79
2022/04/13 03:49:02;;;;;;;11.60;6.87;;;13.60;99.90;;;;;;4997684;28;20211;-80
2022/04/13 03:51:29;;;;;;;15.83;7.37;;;13.50;99.90;;;;;;4998406;28;20255;-80
2022/04/13 03:53:56;;;;;;;15.03;7.27;;;13.50;99.90;;;;;;5002898;28;20241;-79
2022/04/13 03:56:22;;;;;;;13.50;6.83;;;13.40;99.90;;;;;;4996685;28;20206;-79
2022/04/13 03:58:49;;;;;;;11.80;7.03;;;13.50;99.90;;;;;;5002570;28;20237;-81
2022/04/13 04:01:16;;;;;;;11.93;7.40;;;13.40;99.90;;;;;;4998951;28;20286;-81
2022/04/13 04:03:43;;;;;;;12.87;7.40;;;13.40;99.90;;;;;;5001462;28;20214;-80
2022/04/13 04:06:10;;;;;;;13.67;7.33;;;13.40;99.90;;;;;;4998489;28;20210;-80
2022/04/13 04:08:37;;;;;;;18.27;7.47;;;13.30;99.90;;;;;;4998948;28;20233;-80
2022/04/13 04:11:04;;;;;;;14.67;7.50;;;13.40;99.90;;;;;;4997519;28;20222;-81
2022/04/13 04:13:30;;;;;;;13.87;7.77;;;13.40;99.90;;;;;;5002285;28;20731;-80
2022/04/13 04:15:59;;;;;;;14.77;8.10;;;13.30;99.90;;;;;;5006812;28;20222;-81
2022/04/13 04:18:27;;;;;;;15.37;8.03;;;13.30;99.90;;;;;;5009259;28;20238;-79
2022/04/13 04:20:54;;;;;;;14.60;8.37;;;13.30;99.90;;;;;;4999199;28;20319;-80
2022/04/13 04:23:21;;;;;;;13.37;8.37;;;13.30;99.90;;;;;;4998254;28;20262;-80
2022/04/13 04:25:48;;;;;;;13.60;8.60;;;13.30;99.90;;;;;;5000409;28;20211;-81
2022/04/13 04:28:15;;;;;;;15.63;9.40;;;13.20;99.90;;;;;;4999053;28;20620;-78
2022/04/13 04:30:42;;;;;;;16.37;9.17;;;13.10;99.90;;;;;;4996161;28;20313;-80
2022/04/13 04:33:14;;;;;;;17.83;10.10;;;13.10;99.90;;;;;;5000341;28;20207;-80
2022/04/13 04:35:44;;;;;;;14.30;9.40;;;13.00;99.90;;;;;;4995316;28;20223;-80
2022/04/13 04:38:10;;;;;;;16.77;9.00;;;13.00;99.90;;;;;;4996394;28;20320;-82
2022/04/13 04:40:37;;;;;;;14.40;9.53;;;13.10;99.90;;;;;;4998700;28;20226;-80
2022/04/13 04:43:04;;;;;;;18.43;9.33;;;12.90;99.90;;;;;;4997269;28;20295;-80
2022/04/13 04:45:30;;;;;;;18.57;10.53;;;12.90;99.90;;;;;;5005582;28;20246;-79
2022/04/13 04:48:04;;;;;;;18.77;10.57;;;13.00;99.90;;;;;;4999942;28;20257;-79
2022/04/13 04:50:31;;;;;;;19.97;9.57;;;12.90;99.90;;;;;;5003418;28;20306;-80
2022/04/13 04:52:58;;;;;;;22.37;9.93;;;12.80;99.90;;;;;;5001163;28;20241;-79
2022/04/13 04:55:25;;;;;;;18.33;10.50;;;12.80;99.90;;;;;;5003701;28;20223;-79
2022/04/13 04:57:52;;;;;;;15.53;9.87;;;12.80;99.90;;;;;;4998005;28;20211;-79
2022/04/13 05:00:21;;;;;;;16.87;10.07;;;12.80;99.90;;;;;;4997681;28;20361;-79
2022/04/13 05:02:49;;;;;;;17.30;10.43;;;12.70;99.90;;;;;;4996865;28;20206;-79
2022/04/13 05:05:17;;;;;;;20.47;9.97;;;12.70;99.90;;;;;;5005656;28;20588;-79
2022/04/13 05:07:45;;;;;;;19.50;10.73;;;12.60;99.90;;;;;;4995408;28;20293;-80
2022/04/13 05:10:13;;;;;;;16.87;10.47;;;12.60;99.90;;;;;;5002207;28;20217;-80
2022/04/13 05:12:49;;;;;;;18.70;9.90;;;12.60;99.90;;;;;;5000391;28;20224;-79
2022/04/13 05:15:16;;;;;;;19.53;11.10;;;12.60;99.90;;;;;;5006207;28;20205;-80
2022/04/13 05:17:43;;;;;;;18.47;11.60;;;12.60;99.90;;;;;;5012426;28;20301;-80
2022/04/13 05:20:11;;;;;;;16.93;11.00;;;12.60;99.90;;;;;;4997507;28;20231;-81
2022/04/13 05:22:38;;;;;;;18.87;11.33;;;12.70;99.90;;;;;;5003918;28;20296;-80
2022/04/13 05:25:07;;;;;;;18.10;11.13;;;12.60;99.90;;;;;;5001515;28;20230;-80
2022/04/13 05:27:34;;;;;;;16.10;10.90;;;12.60;99.90;;;;;;5000872;28;20323;-79
2022/04/13 05:30:03;;;;;;;15.40;10.73;;;12.60;99.90;;;;;;5000646;28;20217;-79
2022/04/13 05:32:31;;;;;;;21.83;11.13;;;12.70;99.90;;;;;;5003928;28;20305;-80
2022/04/13 05:35:02;;;;;;;17.90;11.80;;;12.80;99.90;;;;;;5003704;28;20309;-81
2022/04/13 05:37:29;;;;;;;20.67;12.07;;;12.80;99.90;;;;;;4992532;28;20295;-81
2022/04/13 05:39:56;;;;;;;20.80;11.73;;;12.90;99.90;;;;;;4995803;28;20549;-80
2022/04/13 05:42:24;;;;;;;19.13;12.00;;;13.00;99.90;;;;;;4997957;28;20230;-81
2022/04/13 05:44:52;;;;;;;18.97;12.47;;;13.00;99.90;;;;;;4996999;28;20207;-81
2022/04/13 05:47:19;;;;;;;21.67;11.83;;;13.10;99.90;;;;;;4996762;28;20585;-79
2022/04/13 05:49:45;;;;;;;19.67;11.87;;;13.10;99.90;;;;;;4997051;28;20225;-76
2022/04/13 05:52:12;;;;;;;19.67;11.13;;;13.20;99.90;;;;;;5000586;28;20333;-81
2022/04/13 05:54:39;;;;;;;17.57;12.70;;;13.30;99.90;;;;;;4994966;28;20214;-80
2022/04/13 05:57:06;;;;;;;20.47;12.07;;;13.30;99.90;;;;;;5002338;28;20234;-81
2022/04/13 05:59:33;;;;;;;27.10;15.07;;;13.30;99.90;;;;;;4997797;28;20211;-80
2022/04/13 06:02:01;;;;;;;24.10;12.83;;;13.40;99.90;;;;;;5011646;28;20302;-80
2022/04/13 06:04:33;;;;;;;20.57;13.20;;;13.40;99.90;;;;;;4992922;28;20207;-81
2022/04/13 06:07:00;;;;;;;25.77;13.60;;;13.50;99.90;;;;;;5008495;28;20273;-80
2022/04/13 06:09:27;;;;;;;22.03;13.23;;;13.50;99.90;;;;;;4995845;28;20301;-80
2022/04/13 06:11:54;;;;;;;23.90;13.20;;;13.60;99.90;;;;;;4996424;28;20261;-80
2022/04/13 06:14:21;;;;;;;22.30;14.33;;;13.70;99.90;;;;;;4995993;28;20659;-81
2022/04/13 06:16:48;;;;;;;20.97;12.80;;;13.60;99.90;;;;;;4992894;28;20297;-78
2022/04/13 06:19:17;;;;;;;24.47;15.30;;;13.70;99.90;;;;;;4995202;28;20318;-79
2022/04/13 06:21:44;;;;;;;26.67;14.13;;;13.80;99.90;;;;;;5001005;28;20234;-80
2022/04/13 06:24:11;;;;;;;24.03;14.70;;;13.80;99.90;;;;;;5001766;28;20274;-80
2022/04/13 06:26:38;;;;;;;24.37;14.70;;;13.90;99.90;;;;;;4994836;28;20282;-79
2022/04/13 06:29:05;;;;;;;27.77;15.43;;;14.00;99.90;;;;;;4997859;28;20203;-80
2022/04/13 06:31:32;;;;;;;23.13;14.37;;;14.00;99.90;;;;;;5001386;28;20245;-79
2022/04/13 06:33:59;;;;;;;24.40;14.77;;;14.10;99.90;;;;;;4994042;28;20249;-79
2022/04/13 06:36:27;;;;;;;23.97;14.20;;;14.20;99.90;;;;;;4995847;28;20251;-80
2022/04/13 06:38:54;;;;;;;24.47;14.97;;;14.30;99.90;;;;;;4997345;28;20623;-80
2022/04/13 06:41:22;;;;;;;24.57;16.03;;;14.30;99.90;;;;;;4993824;28;20832;-80
2022/04/13 06:43:52;;;;;;;27.20;15.63;;;14.40;99.90;;;;;;4991657;28;20636;-81
2022/04/13 06:46:19;;;;;;;24.27;14.57;;;14.50;99.90;;;;;;5000341;28;20563;-80
2022/04/13 06:48:46;;;;;;;30.07;14.60;;;14.60;99.90;;;;;;4999748;28;20677;-80
2022/04/13 06:51:14;;;;;;;21.83;13.57;;;14.80;99.90;;;;;;4995466;28;20207;-81
2022/04/13 06:53:43;;;;;;;23.13;14.27;;;15.00;99.90;;;;;;5012973;28;20241;-82
2022/04/13 06:56:10;;;;;;;22.93;14.00;;;15.20;99.90;;;;;;4990127;28;20250;-80
2022/04/13 06:58:37;;;;;;;20.43;13.70;;;15.50;99.90;;;;;;4996585;28;20289;-80
2022/04/13 07:01:04;;;;;;;17.87;12.30;;;15.80;99.90;;;;;;4991532;28;20592;-81
2022/04/13 07:03:31;;;;;;;24.02;12.77;;;16.10;99.90;;;;;;5001377;28;20199;-81
2022/04/13 07:05:58;;;;;;;21.63;12.83;;;16.30;99.90;;;;;;5000827;28;20238;-81
2022/04/13 07:08:25;;;;;;;22.10;12.67;;;16.40;99.90;;;;;;5000659;28;20244;-81
2022/04/13 07:10:52;;;;;;;20.77;11.90;;;16.40;99.90;;;;;;4999945;28;20605;-80
2022/04/13 07:13:19;;;;;;;21.05;11.50;;;16.50;99.90;;;;;;4999859;28;20205;-82
2022/04/13 07:15:46;;;;;;;18.02;11.73;;;16.40;99.90;;;;;;4994572;28;20227;-82
2022/04/13 07:18:13;;;;;;;18.50;11.47;;;16.30;99.90;;;;;;5000417;28;20648;-82
2022/04/13 07:20:40;;;;;;;17.93;11.37;;;16.40;99.90;;;;;;4997389;28;20230;-81
2022/04/13 07:23:07;;;;;;;22.60;12.20;;;16.50;99.90;;;;;;5004371;28;20227;-81
2022/04/13 07:25:33;;;;;;;18.48;11.43;;;16.40;99.90;;;;;;5001348;28;20209;-80
2022/04/13 07:28:00;;;;;;;16.58;10.85;;;16.50;99.90;;;;;;5005733;28;20208;-82
2022/04/13 07:30:27;;;;;;;18.33;10.82;;;16.50;99.90;;;;;;5010246;28;20282;-81
2022/04/13 07:32:55;;;;;;;19.13;10.02;;;16.60;99.90;;;;;;5002789;28;20206;-82
2022/04/13 07:35:23;;;;;;;19.08;10.23;;;16.80;99.90;;;;;;5003288;28;20320;-83
2022/04/13 07:37:50;;;;;;;17.48;10.73;;;16.80;99.90;;;;;;4999930;28;20320;-81
2022/04/13 07:40:17;;;;;;;17.58;10.27;;;16.90;99.90;;;;;;4997501;28;20281;-81
2022/04/13 07:42:44;;;;;;;16.85;9.75;;;17.00;99.90;;;;;;5001109;28;20199;-83
2022/04/13 07:45:12;;;;;;;15.95;9.50;;;17.20;99.90;;;;;;5003702;28;20242;-80
2022/04/13 07:47:39;;;;;;;15.88;8.32;;;17.30;99.90;;;;;;4989679;28;20241;-80
2022/04/13 07:50:07;;;;;;;14.43;6.93;;;17.30;99.90;;;;;;4990174;28;20281;-81
2022/04/13 07:52:35;;;;;;;10.20;6.97;;;17.30;99.90;;;;;;4994080;28;20746;-82
2022/04/13 07:55:03;;;;;;;12.00;6.90;;;17.20;99.90;;;;;;4997902;28;20215;-81
2022/04/13 07:57:30;;;;;;;13.77;7.53;;;17.20;99.90;;;;;;4997978;28;20270;-84
2022/04/13 07:59:57;;;;;;;14.23;7.25;;;17.30;99.90;;;;;;5001451;28;20202;-82
2022/04/13 08:02:24;;;;;;;13.52;7.95;;;17.30;99.90;;;;;;5003374;28;20199;-83
2022/04/13 08:04:51;;;;;;;13.15;7.15;;;17.30;99.90;;;;;;5002285;28;20206;-82
2022/04/13 08:07:18;;;;;;;13.93;8.23;;;17.40;99.90;;;;;;5000356;28;20216;-82
2022/04/13 08:09:45;;;;;;;14.10;8.20;;;17.50;99.90;;;;;;5001208;28;20303;-83
2022/04/13 08:12:13;;;;;;;12.85;8.25;;;17.70;99.90;;;;;;4999098;28;20242;-82
2022/04/13 08:14:39;;;;;;;17.40;9.23;;;17.90;99.90;;;;;;5003688;28;20223;-84
2022/04/13 08:17:06;;;;;;;16.13;9.27;;;18.10;99.90;;;;;;5004777;28;20289;-82
2022/04/13 08:19:33;;;;;;;18.70;10.48;;;18.20;99.90;;;;;;5009231;28;20234;-81
2022/04/13 08:22:00;;;;;;;18.13;9.68;;;18.40;99.90;;;;;;5019965;28;20226;-80
2022/04/13 08:24:27;;;;;;;16.02;10.27;;;18.60;99.90;;;;;;4999951;28;20229;-84
2022/04/13 08:26:54;;;;;;;18.05;9.45;;;18.60;99.90;;;;;;5005241;28;20296;-83
2022/04/13 08:29:21;;;;;;;17.08;10.45;;;18.40;99.90;;;;;;4998386;28;20302;-83
2022/04/13 08:31:47;;;;;;;15.93;10.07;;;18.50;99.90;;;;;;5003849;28;20202;-82
2022/04/13 08:34:14;;;;;;;21.88;11.63;;;18.60;99.90;;;;;;5003126;28;20289;-81
2022/04/13 08:36:41;;;;;;;22.45;11.75;;;18.70;99.90;;;;;;5002340;28;20276;-83
2022/04/13 08:39:13;;;;;;;19.85;10.68;;;18.40;99.90;;;;;;5000880;28;20234;-82
2022/04/13 08:41:51;;;;;;;14.90;10.70;;;19.30;99.90;;;;;;4999136;28;20276;-82
2022/04/13 08:44:28;;;;;;;19.25;11.15;;;19.30;99.90;;;;;;5002394;28;20238;-83
2022/04/13 08:47:01;;;;;;;17.55;10.93;;;19.40;99.90;;;;;;5003863;28;20199;-82
2022/04/13 08:49:31;;;;;;;18.88;10.73;;;19.40;99.90;;;;;;5000954;28;20218;-81
2022/04/13 08:52:04;;;;;;;18.90;11.55;;;19.20;99.90;;;;;;5004272;28;20280;-83
2022/04/13 08:54:40;;;;;;;15.27;10.23;;;19.30;99.90;;;;;;5005422;28;20217;-82
2022/04/13 08:57:11;;;;;;;16.35;9.30;;;19.60;99.90;;;;;;5002449;28;20378;-82
2022/04/13 09:00:02;;;;;;;17.58;10.48;;;19.90;99.90;;;;;;5002514;28;20215;-82
2022/04/13 09:02:44;;;;;;;19.17;10.18;;;20.30;99.90;;;;;;5007558;28;20233;-82
2022/04/13 09:05:14;;;;;;;15.50;9.38;;;20.50;99.90;;;;;;4998794;28;20307;-82
2022/04/13 09:07:42;;;;;;;17.67;9.13;;;20.60;99.90;;;;;;5003993;28;20273;-84
2022/04/13 09:10:18;;;;;;;14.05;8.82;;;20.80;99.90;;;;;;4999429;28;20196;-83
2022/04/13 09:12:45;;;;;;;11.18;8.13;;;21.20;99.90;;;;;;5015017;28;20222;-84
2022/04/13 09:15:13;;;;;;;11.48;7.82;;;21.60;99.90;;;;;;5000464;28;20217;-82
2022/04/13 09:17:41;;;;;;;10.43;7.30;;;21.80;99.90;;;;;;5004887;28;20230;-84
2022/04/13 09:20:10;;;;;;;11.48;7.38;;;22.00;99.90;;;;;;5011562;28;20207;-83
2022/04/13 09:22:41;;;;;;;12.02;7.30;;;22.10;99.90;;;;;;5000184;28;20345;-83
2022/04/13 09:25:09;;;;;;;13.45;7.95;;;22.40;99.90;;;;;;4994054;28;20745;-84
2022/04/13 09:27:39;;;;;;;13.00;7.20;;;22.60;99.90;;;;;;4997376;28;20211;-83
2022/04/13 09:30:07;;;;;;;11.60;7.05;;;22.80;99.90;;;;;;5005939;28;20268;-83
2022/04/13 09:32:34;;;;;;;8.75;6.47;;;23.00;99.90;;;;;;4997444;28;20642;-85
2022/04/13 09:35:02;;;;;;;12.73;6.45;;;23.00;99.90;;;;;;4999375;28;20231;-83
2022/04/13 09:37:30;;;;;;;9.85;6.60;;;22.90;99.90;;;;;;4992751;28;20543;-83
2022/04/13 09:39:59;;;;;;;10.30;6.75;;;22.80;99.90;;;;;;4998640;28;20688;-85
2022/04/13 09:42:29;;;;;;;9.45;6.15;;;23.00;99.90;;;;;;5000198;28;20285;-85
2022/04/13 09:44:57;;;;;;;9.18;5.30;;;23.30;99.90;;;;;;4998039;28;20219;-86
2022/04/13 09:47:30;;;;;;;7.50;4.90;;;23.60;99.90;;;;;;5005462;28;20271;-87
2022/04/13 09:49:57;;;;;;;6.43;4.90;;;23.60;99.90;;;;;;4999533;28;20774;-84
2022/04/13 09:52:33;;;;;;;6.50;4.30;;;23.30;99.90;;;;;;4996070;28;20630;-83
2022/04/13 09:55:04;;;;;;;9.70;4.00;;;23.10;99.90;;;;;;5002409;28;20199;-84
2022/04/13 09:57:32;;;;;;;6.47;3.58;;;23.10;99.90;;;;;;5006241;28;20202;-83
2022/04/13 10:00:01;;;;;;;5.47;3.78;;;23.20;99.90;;;;;;5001069;28;20206;-85
2022/04/13 10:02:44;;;;;;;6.60;3.35;;;23.00;99.90;;;;;;5000711;28;20304;-83
2022/04/13 10:05:21;;;;;;;8.45;3.95;;;23.10;99.90;;;;;;5009974;28;20653;-78
2022/04/13 10:08:10;;;;;;;5.00;3.70;;;23.00;99.90;;;;;;5000763;28;20261;-84
2022/04/13 10:10:45;;;;;;;6.70;4.15;;;23.00;99.90;;;;;;5000398;28;20237;-84
2022/04/13 10:13:32;;;;;;;7.75;4.50;;;23.00;99.90;;;;;;4999758;28;20255;-85
2022/04/13 10:16:01;;;;;;;8.68;4.22;;;22.80;99.90;;;;;;4995427;28;20219;-84
2022/04/13 10:18:47;;;;;;;5.50;3.95;;;22.60;99.90;;;;;;5002595;28;20245;-84
2022/04/13 10:21:35;;;;;;;7.55;4.28;;;22.60;99.90;;;;;;4997662;28;20262;-86
2022/04/13 10:24:04;;;;;;;6.90;4.55;;;22.40;99.90;;;;;;4997550;28;20212;-83
2022/04/13 10:26:32;;;;;;;6.20;4.25;;;22.20;99.90;;;;;;4999204;28;20301;-84
2022/04/13 10:28:58;;;;;;;7.32;4.00;;;22.20;99.90;;;;;;5002249;28;20202;-85
2022/04/13 10:31:26;;;;;;;6.28;4.38;;;22.00;99.90;;;;;;4998181;28;20601;-86
2022/04/13 10:33:53;;;;;;;6.47;4.35;;;21.80;99.90;;;;;;5003630;28;20622;-87
2022/04/13 10:36:20;;;;;;;12.32;5.05;;;21.70;99.90;;;;;;5001427;28;20206;-86
2022/04/13 10:38:47;;;;;;;8.70;4.38;;;21.50;99.90;;;;;;5000338;28;20234;-84
2022/04/13 10:41:25;;;;;;;9.50;4.00;;;21.40;99.90;;;;;;5003552;28;20284;-86
2022/04/13 10:43:59;;;;;;;6.75;4.50;;;21.40;99.90;;;;;;5002932;28;20238;-86
2022/04/13 10:46:26;;;;;;;7.63;4.78;;;21.30;99.90;;;;;;5012239;28;20259;-85
2022/04/13 10:48:59;;;;;;;7.57;4.25;;;21.40;99.90;;;;;;5001285;28;20221;-81
2022/04/13 10:51:31;;;;;;;8.77;4.47;;;21.50;99.90;;;;;;5001493;28;20267;-86
2022/04/13 10:54:09;;;;;;;7.88;4.82;;;21.40;99.90;;;;;;5002017;28;20257;-83
2022/04/13 10:56:42;;;;;;;8.32;5.03;;;21.50;99.90;;;;;;4998027;28;20223;-87
2022/04/13 11:02:50;;;;;;;7.88;5.03;;;21.30;99.90;;;;;;5011718;28;20234;-89
2022/04/13 11:05:17;;;;;;;6.70;4.57;;;21.20;99.90;;;;;;5005783;28;20203;-88
2022/04/13 11:07:46;;;;;;;6.22;4.75;;;21.00;99.90;;;;;;5004994;28;20221;-86
2022/04/13 11:10:19;;;;;;;9.63;5.30;;;21.00;99.90;;;;;;4999118;28;20325;-84
2022/04/13 11:12:50;;;;;;;10.57;5.05;;;21.10;99.90;;;;;;5000397;28;20206;-83
2022/04/13 11:15:18;;;;;;;8.88;5.05;;;21.10;99.90;;;;;;5003369;28;20672;-87
2022/04/13 11:17:45;;;;;;;8.68;5.20;;;21.20;99.90;;;;;;4996442;28;20663;-86
2022/04/13 11:20:22;;;;;;;9.00;5.38;;;21.30;99.90;;;;;;5002653;28;20203;-86
2022/04/13 11:23:49;;;;;;;8.52;5.75;;;21.50;99.90;;;;;;5002151;28;20239;-87
2022/04/13 11:26:53;;;;;;;11.25;5.57;;;21.40;99.90;;;;;;5009505;28;20335;-87
2022/04/13 11:30:15;;;;;;;8.07;4.78;;;21.30;99.90;;;;;;5005110;28;20344;-86
2022/04/13 11:32:45;;;;;;;9.70;5.05;;;21.30;99.90;;;;;;5009329;28;20198;-87
2022/04/13 11:35:26;;;;;;;10.35;5.63;;;21.40;99.90;;;;;;4999408;28;20752;-89
2022/04/13 11:38:07;;;;;;;8.45;5.80;;;21.40;99.90;;;;;;5005648;28;20290;-85
2022/04/13 11:41:05;;;;;;;10.18;6.38;;;21.50;99.90;;;;;;5006500;28;20199;-86
2022/04/13 11:43:34;;;;;;;11.20;6.35;;;21.40;99.90;;;;;;5016137;28;20853;-87
2022/04/13 11:46:06;;;;;;;12.85;6.78;;;21.20;99.90;;;;;;4999311;28;20309;-85
2022/04/13 11:48:49;;;;;;;9.85;6.95;;;21.10;99.90;;;;;;5008256;28;20572;-85
2022/04/13 11:51:47;;;;;;;11.63;6.57;;;21.00;99.90;;;;;;5001128;28;20394;-87
2022/04/13 11:54:14;;;;;;;9.77;6.70;;;20.80;99.90;;;;;;4999567;28;20326;-87
2022/04/13 11:56:47;;;;;;;12.35;7.55;;;20.80;99.90;;;;;;5001410;28;20564;-87
2022/04/13 11:59:50;;;;;;;10.65;7.13;;;20.70;99.90;;;;;;4999970;28;20194;-87
2022/04/13 12:02:17;;;;;;;11.70;7.45;;;20.60;99.90;;;;;;5009188;28;20233;-88
2022/04/13 12:08:12;;;;;;;11.48;8.00;;;20.70;99.90;;;;;;5005927;28;20302;-85
2022/04/13 12:11:03;;;;;;;11.20;7.50;;;20.60;99.90;;;;;;5007627;28;21835;-87
2022/04/13 12:13:52;;;;;;;11.70;7.47;;;20.60;99.90;;;;;;5003729;28;20222;-82
2022/04/13 12:16:47;;;;;;;12.93;7.38;;;20.60;99.90;;;;;;5005977;28;20202;-85
2022/04/13 12:19:55;;;;;;;10.20;6.82;;;20.60;99.90;;;;;;5001798;28;20657;-85
2022/04/13 12:22:26;;;;;;;9.68;6.65;;;20.50;99.90;;;;;;4998365;28;20720;-87
2022/04/13 12:25:07;;;;;;;8.20;6.30;;;20.30;99.90;;;;;;5010191;28;20209;-86
2022/04/13 12:28:07;;;;;;;9.00;6.25;;;20.30;99.90;;;;;;4941212;28;20829;-84
2022/04/13 12:30:35;;;;;;;10.45;5.50;;;20.30;99.90;;;;;;5005091;28;20253;-85
2022/04/13 12:33:16;;;;;;;7.72;4.82;;;20.30;99.90;;;;;;5003445;28;20218;-86
2022/04/13 12:35:53;;;;;;;9.20;5.38;;;20.00;99.90;;;;;;5001751;28;20221;-84
2022/04/13 12:38:46;;;;;;;12.23;4.63;;;20.00;99.90;;;;;;5002991;28;20219;-86
2022/04/13 12:41:14;;;;;;;7.82;4.65;;;20.00;99.90;;;;;;5002177;28;20206;-86
2022/04/13 12:43:58;;;;;;;6.47;4.32;;;20.00;99.90;;;;;;5002930;28;20265;-85
2022/04/13 12:46:32;;;;;;;8.85;4.53;;;19.80;99.90;;;;;;5002344;28;20215;-86
2022/04/13 12:49:08;;;;;;;9.02;4.47;;;19.80;99.90;;;;;;5004484;28;20213;-84
2022/04/13 12:51:47;;;;;;;10.85;4.35;;;19.80;99.90;;;;;;5000297;28;20237;-86
2022/04/13 12:54:23;;;;;;;9.18;4.55;;;19.80;99.90;;;;;;5000676;28;20750;-86
2022/04/13 12:57:00;;;;;;;9.38;4.53;;;19.80;99.90;;;;;;5004072;28;20228;-86
2022/04/13 12:59:43;;;;;;;8.13;4.40;;;19.70;99.90;;;;;;5000628;28;20681;-84
2022/04/13 13:02:11;;;;;;;10.27;4.68;;;19.70;99.90;;;;;;5018246;28;20222;-84